Time;durP1;ratioP1;P1;durP2;ratioP2;P2;SDS_P1;SDS_P2;PMS_P1;PMS_P2;Temp;Humidity;BMP_temperature;BMP_pressure;BME280_temperature;BME280_humidity;BME280_pressure;Samples;Min_cycle;Max_cycle;Signal;HPM_P1;HPM_P2
2022/11/03 00:00:02;;;;;;;;;;;;;;;;;;5093262;28;1993;-75
2022/11/03 00:02:27;;;;;;;;;;;;;;;;;;5093419;28;1406;-74
2022/11/03 00:04:53;;;;;;;;;;;;;;;;;;5076305;28;1289;-74
2022/11/03 00:07:22;;;;;;;;;;;;;;;;;;5075871;28;1159;-73
2022/11/03 00:09:47;;;;;;;;;;;;;;;;;;5092843;28;1214;-74
2022/11/03 00:12:12;;;;;;;;;;;;;;;;;;5094272;28;856;-74
2022/11/03 00:14:37;;;;;;;;;;;;;;;;;;5076571;28;1274;-74
2022/11/03 00:17:03;;;;;;;;;;;;;;;;;;5093785;28;961;-74
2022/11/03 00:19:28;;;;;;;;;;;;;;;;;;5093948;28;1907;-74
2022/11/03 00:21:53;;;;;;;;;;;;;;;;;;5093913;28;851;-74
2022/11/03 00:24:18;;;;;;;;;;;;;;;;;;5094033;28;875;-74
2022/11/03 00:26:44;;;;;;;;;;;;;;;;;;5093572;28;983;-74
2022/11/03 00:29:11;;;;;;;;;;;;;;;;;;5093429;28;942;-74
2022/11/03 00:31:37;;;;;;;;;;;;;;;;;;5094607;28;868;-75
2022/11/03 00:34:03;;;;;;;;;;;;;;;;;;5076196;28;1296;-74
2022/11/03 00:36:35;;;;;;;;;;;;;;;;;;5093361;28;1260;-75
2022/11/03 00:39:01;;;;;;;;;;;;;;;;;;5092641;28;1918;-74
2022/11/03 00:41:26;;;;;;;;;;;;;;;;;;5092939;28;1161;-75
2022/11/03 00:43:52;;;;;;;;;;;;;;;;;;5075689;28;1254;-75
2022/11/03 00:46:18;;;;;;;;;;;;;;;;;;5092877;28;841;-75
2022/11/03 00:48:43;;;;;;;;;;;;;;;;;;5094095;28;821;-75
2022/11/03 00:51:08;;;;;;;;;;;;;;;;;;5074861;28;1265;-74
2022/11/03 00:53:35;;;;;;;;;;;;;;;;;;5093317;28;935;-75
2022/11/03 00:56:01;;;;;;;;;;;;;;;;;;5092616;28;963;-74
2022/11/03 00:58:26;;;;;;;;;;;;;;;;;;5091206;28;1941;-75
2022/11/03 01:01:02;;;;;;;;;;;;;;;;;;5091039;28;1269;-74
2022/11/03 01:03:27;;;;;;;;;;;;;;;;;;5092926;28;955;-75
2022/11/03 01:08:37;;;;;;;;;;;;;;;;;;5091970;28;724;-75
2022/11/03 01:13:53;;;;;;;;;;;;;;;;;;5083698;28;1238;-74
2022/11/03 01:16:19;;;;;;;;;;;;;;;;;;5075468;28;3569;-75
2022/11/03 01:18:44;;;;;;;;;;;;;;;;;;5060964;28;3792;-75
2022/11/03 01:21:09;;;;;;;;;;;;;;;;;;5104504;28;765;-75
2022/11/03 01:23:35;;;;;;;;;;;;;;;;;;5087426;28;1186;-74
2022/11/03 01:26:07;;;;;;;;;;;;;;;;;;5069965;28;1258;-75
2022/11/03 01:28:36;;;;;;;;;;;;;;;;;;5103759;28;880;-75
2022/11/03 01:31:22;;;;;;;;;;;;;;;;;;5069945;28;1316;-74
2022/11/03 01:33:49;;;;;;;;;;;;;;;;;;5071240;28;1193;-75
2022/11/03 01:36:14;;;;;;;;;;;;;;;;;;5069830;28;1134;-74
2022/11/03 01:38:40;;;;;;;;;;;;;;;;;;5070768;28;1976;-75
2022/11/03 01:41:07;;;;;;;;;;;;;;;;;;5069816;28;1111;-75
2022/11/03 01:43:33;;;;;;;;;;;;;;;;;;5071797;28;904;-75
2022/11/03 01:46:01;;;;;;;;;;;;;;;;;;5069710;28;1156;-74
2022/11/03 01:48:27;;;;;;;;;;;;;;;;;;5071554;28;821;-75
2022/11/03 01:50:52;;;;;;;;;;;;;;;;;;5071313;28;979;-74
2022/11/03 01:53:18;;;;;;;;;;;;;;;;;;5071160;28;813;-75
2022/11/03 01:55:44;;;;;;;;;;;;;;;;;;5071651;28;817;-75
2022/11/03 01:58:18;;;;;;;;;;;;;;;;;;5070565;28;1222;-75
2022/11/03 02:00:45;;;;;;;;;;;;;;;;;;5071821;28;978;-74
2022/11/03 02:03:11;;;;;;;;;;;;;;;;;;5070378;28;1233;-75
2022/11/03 02:05:37;;;;;;;;;;;;;;;;;;5071994;28;999;-75
2022/11/03 02:08:02;;;;;;;;;;;;;;;;;;5071658;28;895;-75
2022/11/03 02:10:28;;;;;;;;;;;;;;;;;;5072124;28;816;-74
2022/11/03 02:12:56;;;;;;;;;;;;;;;;;;5070156;28;1122;-75
2022/11/03 02:15:21;;;;;;;;;;;;;;;;;;5086957;28;1257;-74
2022/11/03 02:17:48;;;;;;;;;;;;;;;;;;5103846;28;880;-75
2022/11/03 02:20:17;;;;;;;;;;;;;;;;;;5085224;28;1969;-73
2022/11/03 02:22:52;;;;;;;;;;;;;;;;;;5070892;28;885;-73
2022/11/03 02:25:32;;;;;;;;;;;;;;;;;;5071390;28;891;-73
2022/11/03 02:27:58;;;;;;;;;;;;;;;;;;5070768;28;852;-73
2022/11/03 02:30:24;;;;;;;;;;;;;;;;;;5086752;28;1182;-73
2022/11/03 02:32:54;;;;;;;;;;;;;;;;;;5070020;28;1079;-73
2022/11/03 02:35:33;;;;;;;;;;;;;;;;;;5070586;28;904;-73
2022/11/03 02:38:00;;;;;;;;;;;;;;;;;;5071294;28;872;-73
2022/11/03 02:40:28;;;;;;;;;;;;;;;;;;5071524;28;1898;-73
2022/11/03 02:42:55;;;;;;;;;;;;;;;;;;5073308;28;1102;-74
2022/11/03 02:45:21;;;;;;;;;;;;;;;;;;5073064;28;1202;-73
2022/11/03 02:47:48;;;;;;;;;;;;;;;;;;5074922;28;929;-73
2022/11/03 02:50:13;;;;;;;;;;;;;;;;;;5074201;28;980;-74
2022/11/03 02:52:45;;;;;;;;;;;;;;;;;;5074787;28;958;-73
2022/11/03 02:55:49;;;;;;;;;;;;;;;;;;5074228;28;892;-73
2022/11/03 02:58:25;;;;;;;;;;;;;;;;;;5091953;28;1349;-73
2022/11/03 03:01:13;;;;;;;;;;;;;;;;;;5075384;28;1269;-73
2022/11/03 03:04:08;;;;;;;;;;;;;;;;;;5071946;28;3664;-73
2022/11/03 03:06:46;;;;;;;;;;;;;;;;;;5078173;28;1232;-73
2022/11/03 03:09:15;;;;;;;;;;;;;;;;;;5074255;28;868;-73
2022/11/03 03:11:42;;;;;;;;;;;;;;;;;;5074617;28;971;-73
2022/11/03 03:14:17;;;;;;;;;;;;;;;;;;5072789;28;1302;-73
2022/11/03 03:16:49;;;;;;;;;;;;;;;;;;5074594;28;983;-73
2022/11/03 03:19:21;;;;;;;;;;;;;;;;;;5072883;28;1918;-73
2022/11/03 03:21:49;;;;;;;;;;;;;;;;;;5074592;28;1281;-74
2022/11/03 03:24:22;;;;;;;;;;;;;;;;;;5074019;28;970;-73
2022/11/03 03:26:48;;;;;;;;;;;;;;;;;;5072983;28;1170;-73
2022/11/03 03:29:16;;;;;;;;;;;;;;;;;;5072362;28;1261;-73
2022/11/03 03:31:46;;;;;;;;;;;;;;;;;;5073449;28;1258;-73
2022/11/03 03:34:13;;;;;;;;;;;;;;;;;;5074395;28;883;-73
2022/11/03 03:36:39;;;;;;;;;;;;;;;;;;5074945;28;888;-73
2022/11/03 03:39:05;;;;;;;;;;;;;;;;;;5073102;28;1964;-73
2022/11/03 03:41:32;;;;;;;;;;;;;;;;;;5073424;28;1178;-73
2022/11/03 03:44:05;;;;;;;;;;;;;;;;;;5073307;28;1316;-73
2022/11/03 03:46:33;;;;;;;;;;;;;;;;;;5073550;28;1442;-73
2022/11/03 03:48:59;;;;;;;;;;;;;;;;;;5073870;28;959;-72
2022/11/03 03:51:26;;;;;;;;;;;;;;;;;;5072424;28;1361;-73
2022/11/03 03:53:52;;;;;;;;;;;;;;;;;;5073703;28;1058;-73
2022/11/03 03:56:22;;;;;;;;;;;;;;;;;;5073777;28;773;-73
2022/11/03 03:58:48;;;;;;;;;;;;;;;;;;5073566;28;1967;-73
2022/11/03 04:01:13;;;;;;;;;;;;;;;;;;5071739;28;1289;-73
2022/11/03 04:03:38;;;;;;;;;;;;;;;;;;5072258;28;1119;-73
2022/11/03 04:06:04;;;;;;;;;;;;;;;;;;5105708;28;999;-74
2022/11/03 04:08:29;;;;;;;;;;;;;;;;;;5071952;28;1280;-73
2022/11/03 04:24:35;;;;;;;;;;;;;;;;;;5101110;28;721;-73
2022/11/03 04:27:04;;;;;;;;;;;;;;;;;;5072784;28;943;-73
2022/11/03 04:29:29;;;;;;;;;;;;;;;;;;5073162;28;840;-73
2022/11/03 04:31:55;;;;;;;;;;;;;;;;;;5071771;28;1324;-74
2022/11/03 04:34:22;;;;;;;;;;;;;;;;;;5072472;28;920;-73
2022/11/03 04:36:47;;;;;;;;;;;;;;;;;;5105903;28;955;-73
2022/11/03 04:39:18;;;;;;;;;;;;;;;;;;5106297;28;1961;-73
2022/11/03 04:41:43;;;;;;;;;;;;;;;;;;5073488;28;853;-74
2022/11/03 04:44:15;;;;;;;;;;;;;;;;;;5071466;28;1361;-74
2022/11/03 04:46:42;;;;;;;;;;;;;;;;;;5071238;28;1242;-73
2022/11/03 04:49:10;;;;;;;;;;;;;;;;;;5071477;28;1439;-74
2022/11/03 04:51:36;;;;;;;;;;;;;;;;;;5067005;28;3601;-73
2022/11/03 04:54:02;;;;;;;;;;;;;;;;;;5084272;28;869;-73
2022/11/03 04:56:28;;;;;;;;;;;;;;;;;;5051578;28;1223;-74
2022/11/03 04:58:53;;;;;;;;;;;;;;;;;;5051172;28;1965;-74
2022/11/03 05:01:20;;;;;;;;;;;;;;;;;;5084605;28;978;-74
2022/11/03 05:03:47;;;;;;;;;;;;;;;;;;5051843;28;797;-73
2022/11/03 05:06:23;;;;;;;;;;;;;;;;;;5085029;28;1170;-73
2022/11/03 05:08:53;;;;;;;;;;;;;;;;;;5052961;28;1564;-73
2022/11/03 05:11:25;;;;;;;;;;;;;;;;;;5052992;28;912;-73
2022/11/03 05:13:51;;;;;;;;;;;;;;;;;;5051972;28;1246;-74
2022/11/03 05:16:16;;;;;;;;;;;;;;;;;;5051225;28;1222;-73
2022/11/03 05:18:43;;;;;;;;;;;;;;;;;;5052640;28;1906;-73
2022/11/03 05:21:11;;;;;;;;;;;;;;;;;;5052808;28;906;-74
2022/11/03 05:23:45;;;;;;;;;;;;;;;;;;5051724;28;1285;-75
2022/11/03 05:26:17;;;;;;;;;;;;;;;;;;5051910;28;880;-74
2022/11/03 05:28:45;;;;;;;;;;;;;;;;;;5050926;28;1218;-74
2022/11/03 05:31:19;;;;;;;;;;;;;;;;;;5050452;28;1166;-75
2022/11/03 05:33:46;;;;;;;;;;;;;;;;;;5050786;28;1171;-74
2022/11/03 05:36:13;;;;;;;;;;;;;;;;;;5050446;28;1083;-74
2022/11/03 05:38:38;;;;;;;;;;;;;;;;;;5050872;28;1935;-74
2022/11/03 05:41:24;;;;;;;;;;;;;;;;;;5052105;28;808;-75
2022/11/03 05:43:52;;;;;;;;;;;;;;;;;;5052111;28;1044;-74
2022/11/03 05:46:17;;;;;;;;;;;;;;;;;;5051813;28;848;-74
2022/11/03 05:48:43;;;;;;;;;;;;;;;;;;5051636;28;1135;-75
2022/11/03 05:51:20;;;;;;;;;;;;;;;;;;5051261;28;1293;-75
2022/11/03 05:53:48;;;;;;;;;;;;;;;;;;5058949;28;1199;-74
2022/11/03 05:56:17;;;;;;;;;;;;;;;;;;5081188;28;1230;-74
2022/11/03 05:58:43;;;;;;;;;;;;;;;;;;5072290;28;1973;-74
2022/11/03 06:01:14;;;;;;;;;;;;;;;;;;5070576;28;888;-75
2022/11/03 06:03:39;;;;;;;;;;;;;;;;;;5070817;28;1178;-75
2022/11/03 06:06:12;;;;;;;;;;;;;;;;;;5070259;28;928;-75
2022/11/03 06:08:38;;;;;;;;;;;;;;;;;;5071923;28;817;-74
2022/11/03 06:11:03;;;;;;;;;;;;;;;;;;5053675;28;1183;-74
2022/11/03 06:13:32;;;;;;;;;;;;;;;;;;5070612;28;842;-75
2022/11/03 06:16:00;;;;;;;;;;;;;;;;;;5072324;28;868;-74
2022/11/03 06:18:29;;;;;;;;;;;;;;;;;;5070448;28;1300;-75
2022/11/03 06:20:56;;;;;;;;;;;;;;;;;;5072149;28;797;-74
2022/11/03 06:23:22;;;;;;;;;;;;;;;;;;5069940;28;1146;-75
2022/11/03 06:25:47;;;;;;;;;;;;;;;;;;5070078;28;954;-74
2022/11/03 06:28:19;;;;;;;;;;;;;;;;;;5070411;28;1190;-75
2022/11/03 06:30:44;;;;;;;;;;;;;;;;;;5072372;28;821;-74
2022/11/03 06:33:24;;;;;;;;;;;;;;;;;;5072383;28;930;-73
2022/11/03 06:35:50;;;;;;;;;;;;;;;;;;5073064;28;1021;-74
2022/11/03 06:38:22;;;;;;;;;;;;;;;;;;5074232;28;908;-74
2022/11/03 06:40:49;;;;;;;;;;;;;;;;;;5076306;28;1905;-74
2022/11/03 06:43:20;;;;;;;;;;;;;;;;;;5076354;28;989;-74
2022/11/03 06:45:50;;;;;;;;;;;;;;;;;;5076385;28;842;-74
2022/11/03 06:48:20;;;;;;;;;;;;;;;;;;5076062;28;1392;-73
2022/11/03 06:50:45;;;;;;;;;;;;;;;;;;5077872;28;1070;-73
2022/11/03 06:53:10;;;;;;;;;;;;;;;;;;5057071;28;1210;-74
2022/11/03 06:55:37;;;;;;;;;;;;;;;;;;5075863;28;920;-73
2022/11/03 06:58:21;;;;;;;;;;;;;;;;;;5057300;28;1167;-73
2022/11/03 07:00:46;;;;;;;;;;;;;;;;;;5073596;28;1888;-74
2022/11/03 07:03:15;;;;;;;;;;;;;;;;;;5056478;28;1170;-74
2022/11/03 07:05:40;;;;;;;;;;;;;;;;;;5075601;28;1154;-75
2022/11/03 07:08:13;;;;;;;;;;;;;;;;;;5074291;28;1045;-73
2022/11/03 07:10:38;;;;;;;;;;;;;;;;;;5074580;28;1174;-73
2022/11/03 07:13:09;;;;;;;;;;;;;;;;;;5075078;28;1123;-74
2022/11/03 07:15:37;;;;;;;;;;;;;;;;;;5075913;28;920;-74
2022/11/03 07:18:03;;;;;;;;;;;;;;;;;;5076639;28;1026;-74
2022/11/03 07:20:30;;;;;;;;;;;;;;;;;;5075886;28;1977;-73
2022/11/03 07:22:56;;;;;;;;;;;;;;;;;;5073720;28;1218;-74
2022/11/03 07:25:21;;;;;;;;;;;;;;;;;;5075216;28;1314;-75
2022/11/03 07:27:52;;;;;;;;;;;;;;;;;;5078355;28;948;-74
2022/11/03 07:30:22;;;;;;;;;;;;;;;;;;5076767;28;1221;-74
2022/11/03 07:32:49;;;;;;;;;;;;;;;;;;5074853;28;1285;-74
2022/11/03 07:35:14;;;;;;;;;;;;;;;;;;5073555;28;1104;-74
2022/11/03 07:37:40;;;;;;;;;;;;;;;;;;5073377;28;1357;-74
2022/11/03 07:40:11;;;;;;;;;;;;;;;;;;5073945;28;1898;-75
2022/11/03 07:42:36;;;;;;;;;;;;;;;;;;5075333;28;927;-75
2022/11/03 07:45:08;;;;;;;;;;;;;;;;;;5074862;28;833;-75
2022/11/03 07:47:34;;;;;;;;;;;;;;;;;;5075534;28;903;-75
2022/11/03 07:49:59;;;;;;;;;;;;;;;;;;5073572;28;880;-75
2022/11/03 07:52:24;;;;;;;;;;;;;;;;;;5073697;28;1166;-74
2022/11/03 07:54:53;;;;;;;;;;;;;;;;;;5073798;28;1285;-74
2022/11/03 07:57:21;;;;;;;;;;;;;;;;;;5075274;28;817;-74
2022/11/03 07:59:47;;;;;;;;;;;;;;;;;;5074803;28;1968;-74
2022/11/03 08:02:48;;;;;;;;;;;;;;;;;;5074192;28;825;-74
2022/11/03 08:05:14;;;;;;;;;;;;;;;;;;5035359;28;1215;-74
2022/11/03 08:07:39;;;;;;;;;;;;;;;;;;5064615;28;1337;-74
2022/11/03 08:10:06;;;;;;;;;;;;;;;;;;5057243;28;1264;-75
2022/11/03 08:12:31;;;;;;;;;;;;;;;;;;5072527;28;1284;-75
2022/11/03 08:14:56;;;;;;;;;;;;;;;;;;5055869;28;1274;-74
2022/11/03 08:17:22;;;;;;;;;;;;;;;;;;5072888;28;982;-74
2022/11/03 08:19:47;;;;;;;;;;;;;;;;;;5056256;28;1902;-74
2022/11/03 08:22:12;;;;;;;;;;;;;;;;;;5073664;28;1261;-74
2022/11/03 08:24:37;;;;;;;;;;;;;;;;;;5076262;28;904;-74
2022/11/03 08:27:03;;;;;;;;;;;;;;;;;;5075807;28;876;-74
2022/11/03 08:29:29;;;;;;;;;;;;;;;;;;5057887;28;1368;-75
2022/11/03 08:31:54;;;;;;;;;;;;;;;;;;5074910;28;813;-74
2022/11/03 08:34:20;;;;;;;;;;;;;;;;;;5074740;28;897;-75
2022/11/03 08:36:45;;;;;;;;;;;;;;;;;;5073559;28;1084;-75
2022/11/03 08:39:10;;;;;;;;;;;;;;;;;;5073628;28;2020;-75
2022/11/03 08:41:36;;;;;;;;;;;;;;;;;;5072608;28;852;-74
2022/11/03 08:44:01;;;;;;;;;;;;;;;;;;5073131;28;1160;-75
2022/11/03 08:46:27;;;;;;;;;;;;;;;;;;5072044;28;900;-75
2022/11/03 08:48:52;;;;;;;;;;;;;;;;;;5072173;28;782;-75
2022/11/03 08:51:17;;;;;;;;;;;;;;;;;;5070726;28;1178;-75
2022/11/03 08:53:43;;;;;;;;;;;;;;;;;;5071258;28;1289;-74
2022/11/03 08:56:09;;;;;;;;;;;;;;;;;;5071559;28;888;-75
2022/11/03 08:58:34;;;;;;;;;;;;;;;;;;5072056;28;1965;-74
2022/11/03 09:00:59;;;;;;;;;;;;;;;;;;5072528;28;920;-74
2022/11/03 09:03:25;;;;;;;;;;;;;;;;;;5072026;28;885;-74
2022/11/03 09:05:50;;;;;;;;;;;;;;;;;;5072310;28;877;-74
2022/11/03 09:08:15;;;;;;;;;;;;;;;;;;5070373;28;912;-73
2022/11/03 09:10:40;;;;;;;;;;;;;;;;;;5072597;28;1204;-74
2022/11/03 09:13:07;;;;;;;;;;;;;;;;;;5072901;28;837;-73
2022/11/03 09:15:32;;;;;;;;;;;;;;;;;;5075772;28;1243;-73
2022/11/03 09:17:57;;;;;;;;;;;;;;;;;;5093235;28;938;-73
2022/11/03 09:20:23;;;;;;;;;;;;;;;;;;5091862;28;1902;-73
2022/11/03 09:22:48;;;;;;;;;;;;;;;;;;5094435;28;829;-74
2022/11/03 09:25:13;;;;;;;;;;;;;;;;;;5093639;28;828;-73
2022/11/03 09:27:39;;;;;;;;;;;;;;;;;;5093866;28;864;-74
2022/11/03 09:30:05;;;;;;;;;;;;;;;;;;5092020;28;1217;-74
2022/11/03 09:32:30;;;;;;;;;;;;;;;;;;5091852;28;879;-74
2022/11/03 09:34:56;;;;;;;;;;;;;;;;;;5074996;28;1055;-77
2022/11/03 09:37:21;;;;;;;;;;;;;;;;;;5092803;28;829;-75
2022/11/03 09:39:47;;;;;;;;;;;;;;;;;;5092398;28;1901;-75
2022/11/03 09:42:12;;;;;;;;;;;;;;;;;;5092759;28;867;-72
2022/11/03 09:44:38;;;;;;;;;;;;;;;;;;5091738;28;884;-75
2022/11/03 09:47:04;;;;;;;;;;;;;;;;;;5092162;28;899;-73
2022/11/03 09:49:32;;;;;;;;;;;;;;;;;;5091104;28;1221;-74
2022/11/03 09:51:58;;;;;;;;;;;;;;;;;;5092497;28;1027;-74
2022/11/03 09:54:25;;;;;;;;;;;;;;;;;;5092909;28;828;-73
2022/11/03 09:56:51;;;;;;;;;;;;;;;;;;5093149;28;1264;-73
2022/11/03 09:59:18;;;;;;;;;;;;;;;;;;5091940;28;1886;-73
2022/11/03 10:01:45;;;;;;;;;;;;;;;;;;5091920;28;1177;-73
2022/11/03 10:04:11;;;;;;;;;;;;;;;;;;5091515;28;1193;-73
2022/11/03 10:06:37;;;;;;;;;;;;;;;;;;5091929;28;1186;-73
2022/11/03 10:09:02;;;;;;;;;;;;;;;;;;5091691;28;1312;-73
2022/11/03 10:11:28;;;;;;;;;;;;;;;;;;5091559;28;1252;-73
2022/11/03 10:13:54;;;;;;;;;;;;;;;;;;5074874;28;1214;-73
2022/11/03 10:16:21;;;;;;;;;;;;;;;;;;5091055;28;1275;-74
2022/11/03 10:18:47;;;;;;;;;;;;;;;;;;5091471;28;1984;-74
2022/11/03 10:21:17;;;;;;;;;;;;;;;;;;5091037;28;1134;-73
2022/11/03 10:23:43;;;;;;;;;;;;;;;;;;5091385;28;1273;-74
2022/11/03 10:26:12;;;;;;;;;;;;;;;;;;5074658;28;1258;-74
2022/11/03 10:28:39;;;;;;;;;;;;;;;;;;5091814;28;923;-74
2022/11/03 10:31:07;;;;;;;;;;;;;;;;;;5090794;28;1170;-74
2022/11/03 10:33:37;;;;;;;;;;;;;;;;;;5091798;28;883;-73
2022/11/03 10:36:14;;;;;;;;;;;;;;;;;;5090541;28;1249;-73
2022/11/03 10:38:40;;;;;;;;;;;;;;;;;;5091947;28;1901;-73
2022/11/03 10:41:10;;;;;;;;;;;;;;;;;;5090543;28;1276;-74
2022/11/03 10:43:36;;;;;;;;;;;;;;;;;;5091397;28;865;-74
2022/11/03 10:46:08;;;;;;;;;;;;;;;;;;5091927;28;905;-74
2022/11/03 10:48:34;;;;;;;;;;;;;;;;;;5091000;28;1280;-75
2022/11/03 10:50:59;;;;;;;;;;;;;;;;;;5091078;28;911;-74
2022/11/03 10:53:24;;;;;;;;;;;;;;;;;;5073957;28;1230;-74
2022/11/03 10:55:49;;;;;;;;;;;;;;;;;;5073890;28;1242;-74
2022/11/03 10:58:16;;;;;;;;;;;;;;;;;;5092461;28;833;-74
2022/11/03 11:00:42;;;;;;;;;;;;;;;;;;5073958;28;1913;-75
2022/11/03 11:03:07;;;;;;;;;;;;;;;;;;5077485;28;1285;-74
2022/11/03 11:05:33;;;;;;;;;;;;;;;;;;5095755;28;821;-75
2022/11/03 11:07:58;;;;;;;;;;;;;;;;;;5077537;28;1242;-75
2022/11/03 11:10:28;;;;;;;;;;;;;;;;;;5095466;28;868;-74
2022/11/03 11:13:05;;;;;;;;;;;;;;;;;;5093951;28;1154;-76
2022/11/03 11:15:39;;;;;;;;;;;;;;;;;;5095644;28;892;-75
2022/11/03 11:18:04;;;;;;;;;;;;;;;;;;5094252;28;1075;-75
2022/11/03 11:20:31;;;;;;;;;;;;;;;;;;5076487;28;1914;-74
2022/11/03 11:23:15;;;;;;;;;;;;;;;;;;5095155;28;901;-74
2022/11/03 11:26:00;;;;;;;;;;;;;;;;;;5094055;28;1201;-74
2022/11/03 11:28:26;;;;;;;;;;;;;;;;;;5094527;28;1003;-75
2022/11/03 11:30:55;;;;;;;;;;;;;;;;;;5093534;28;1059;-75
2022/11/03 11:33:21;;;;;;;;;;;;;;;;;;5076450;28;1265;-75
2022/11/03 11:35:47;;;;;;;;;;;;;;;;;;5095171;28;869;-74
2022/11/03 11:38:31;;;;;;;;;;;;;;;;;;5094397;28;1363;-73
2022/11/03 11:40:56;;;;;;;;;;;;;;;;;;5095214;28;1901;-74
2022/11/03 11:43:25;;;;;;;;;;;;;;;;;;5095259;28;880;-74
2022/11/03 11:46:09;;;;;;;;;;;;;;;;;;5093881;28;1221;-74
2022/11/03 11:48:34;;;;;;;;;;;;;;;;;;5077411;28;1578;-75
2022/11/03 11:51:01;;;;;;;;;;;;;;;;;;5078356;28;1616;-75
2022/11/03 11:53:27;;;;;;;;;;;;;;;;;;5073514;28;1484;-75
2022/11/03 11:55:54;;;;;;;;;;;;;;;;;;5053840;28;1196;-75
2022/11/03 11:58:24;;;;;;;;;;;;;;;;;;5053835;28;1406;-75
2022/11/03 12:00:51;;;;;;;;;;;;;;;;;;5057605;28;1983;-75
2022/11/03 12:03:19;;;;;;;;;;;;;;;;;;5078864;28;1567;-73
2022/11/03 12:05:48;;;;;;;;;;;;;;;;;;5060455;28;1670;-75
2022/11/03 12:08:17;;;;;;;;;;;;;;;;;;5067501;28;1564;-74
2022/11/03 12:10:50;;;;;;;;;;;;;;;;;;5054418;28;1658;-73
2022/11/03 12:13:35;;;;;;;;;;;;;;;;;;5053809;28;1137;-73
2022/11/03 12:16:00;;;;;;;;;;;;;;;;;;5057058;28;1487;-74
2022/11/03 12:18:33;;;;;;;;;;;;;;;;;;5082201;28;1167;-74
2022/11/03 12:20:59;;;;;;;;;;;;;;;;;;5081329;28;1972;-75
2022/11/03 12:23:30;;;;;;;;;;;;;;;;;;5077060;28;1214;-74
2022/11/03 12:25:56;;;;;;;;;;;;;;;;;;5071826;28;963;-74
2022/11/03 12:28:31;;;;;;;;;;;;;;;;;;5071942;28;820;-74
2022/11/03 12:30:56;;;;;;;;;;;;;;;;;;5055205;28;1194;-74
2022/11/03 12:33:22;;;;;;;;;;;;;;;;;;5071295;28;1123;-74
2022/11/03 12:35:47;;;;;;;;;;;;;;;;;;5073220;28;841;-74
2022/11/03 12:38:13;;;;;;;;;;;;;;;;;;5054799;28;1281;-74
2022/11/03 12:40:38;;;;;;;;;;;;;;;;;;5073073;28;1967;-75
2022/11/03 12:43:03;;;;;;;;;;;;;;;;;;5071562;28;892;-74
2022/11/03 12:45:28;;;;;;;;;;;;;;;;;;5072544;28;864;-74
2022/11/03 12:47:54;;;;;;;;;;;;;;;;;;5071464;28;1245;-74
2022/11/03 12:50:19;;;;;;;;;;;;;;;;;;5054575;28;1246;-74
2022/11/03 12:52:44;;;;;;;;;;;;;;;;;;5071266;28;1248;-74
2022/11/03 12:55:11;;;;;;;;;;;;;;;;;;5073064;28;805;-74
2022/11/03 12:57:36;;;;;;;;;;;;;;;;;;5073278;28;892;-74
2022/11/03 13:00:02;;;;;;;;;;;;;;;;;;5072149;28;1910;-74
2022/11/03 13:02:27;;;;;;;;;;;;;;;;;;5070790;28;1277;-74
2022/11/03 13:04:53;;;;;;;;;;;;;;;;;;5054580;28;1229;-74
2022/11/03 13:07:19;;;;;;;;;;;;;;;;;;5072061;28;875;-74
2022/11/03 13:09:44;;;;;;;;;;;;;;;;;;5072016;28;1022;-73
2022/11/03 13:14:54;;;;;;;;;;;;;;;;;;5072957;28;685;-74
2022/11/03 13:17:19;;;;;;;;;;;;;;;;;;5072589;28;900;-74
2022/11/03 13:19:45;;;;;;;;;;;;;;;;;;5071304;28;1975;-74
2022/11/03 13:22:10;;;;;;;;;;;;;;;;;;5071496;28;987;-74
2022/11/03 13:24:36;;;;;;;;;;;;;;;;;;5053726;28;1210;-74
2022/11/03 13:27:01;;;;;;;;;;;;;;;;;;5071899;28;797;-73
2022/11/03 13:29:26;;;;;;;;;;;;;;;;;;5070584;28;880;-75
2022/11/03 13:31:51;;;;;;;;;;;;;;;;;;5054309;28;1269;-73
2022/11/03 13:34:17;;;;;;;;;;;;;;;;;;5072257;28;872;-74
2022/11/03 13:36:42;;;;;;;;;;;;;;;;;;5054345;28;1240;-73
2022/11/03 13:39:07;;;;;;;;;;;;;;;;;;5071262;28;1905;-74
2022/11/03 13:41:33;;;;;;;;;;;;;;;;;;5071366;28;1118;-74
2022/11/03 13:43:58;;;;;;;;;;;;;;;;;;5054259;28;1106;-75
2022/11/03 13:46:23;;;;;;;;;;;;;;;;;;5071472;28;825;-75
2022/11/03 13:48:49;;;;;;;;;;;;;;;;;;5071062;28;918;-74
2022/11/03 13:51:16;;;;;;;;;;;;;;;;;;5070038;28;1266;-74
2022/11/03 13:53:42;;;;;;;;;;;;;;;;;;5070395;28;852;-75
2022/11/03 13:56:07;;;;;;;;;;;;;;;;;;5071703;28;789;-74
2022/11/03 13:58:32;;;;;;;;;;;;;;;;;;5071334;28;1026;-74
2022/11/03 14:00:58;;;;;;;;;;;;;;;;;;5071202;28;1968;-74
2022/11/03 14:03:23;;;;;;;;;;;;;;;;;;5053158;28;1265;-74
2022/11/03 14:05:48;;;;;;;;;;;;;;;;;;5070397;28;824;-74
2022/11/03 14:08:14;;;;;;;;;;;;;;;;;;5070131;28;1111;-74
2022/11/03 14:10:39;;;;;;;;;;;;;;;;;;5069883;28;939;-74
2022/11/03 14:13:04;;;;;;;;;;;;;;;;;;5069866;28;904;-75
2022/11/03 14:15:30;;;;;;;;;;;;;;;;;;5069937;28;1328;-75
2022/11/03 14:17:56;;;;;;;;;;;;;;;;;;5070304;28;829;-74
2022/11/03 14:20:22;;;;;;;;;;;;;;;;;;5069888;28;1898;-75
2022/11/03 14:22:47;;;;;;;;;;;;;;;;;;5054246;28;1392;-74
2022/11/03 14:25:13;;;;;;;;;;;;;;;;;;5071122;28;986;-75
2022/11/03 14:27:38;;;;;;;;;;;;;;;;;;5071315;28;837;-75
2022/11/03 14:30:03;;;;;;;;;;;;;;;;;;5070549;28;885;-75
2022/11/03 14:32:29;;;;;;;;;;;;;;;;;;5053195;28;1268;-75
2022/11/03 14:34:55;;;;;;;;;;;;;;;;;;5070595;28;1191;-75
2022/11/03 14:37:24;;;;;;;;;;;;;;;;;;5076473;28;1067;-74
2022/11/03 14:39:49;;;;;;;;;;;;;;;;;;5075023;28;1909;-74
2022/11/03 14:42:15;;;;;;;;;;;;;;;;;;5074853;28;1166;-76
2022/11/03 14:44:41;;;;;;;;;;;;;;;;;;5076896;28;840;-75
2022/11/03 14:47:07;;;;;;;;;;;;;;;;;;5088605;28;1270;-74
2022/11/03 14:49:33;;;;;;;;;;;;;;;;;;5086950;28;1289;-73
2022/11/03 14:52:00;;;;;;;;;;;;;;;;;;5081926;28;1208;-76
2022/11/03 14:54:26;;;;;;;;;;;;;;;;;;5089664;28;1223;-74
2022/11/03 14:56:51;;;;;;;;;;;;;;;;;;5096695;28;951;-77
2022/11/03 14:59:16;;;;;;;;;;;;;;;;;;5095596;28;1901;-75
2022/11/03 15:01:45;;;;;;;;;;;;;;;;;;5096500;28;761;-76
2022/11/03 15:04:11;;;;;;;;;;;;;;;;;;5095879;28;1033;-75
2022/11/03 15:06:37;;;;;;;;;;;;;;;;;;5094781;28;1181;-78
2022/11/03 15:09:02;;;;;;;;;;;;;;;;;;5095321;28;1174;-78
2022/11/03 15:11:27;;;;;;;;;;;;;;;;;;5096627;28;875;-79
2022/11/03 15:13:56;;;;;;;;;;;;;;;;;;5095129;28;1145;-79
2022/11/03 15:16:22;;;;;;;;;;;;;;;;;;5095868;28;907;-78
2022/11/03 15:18:47;;;;;;;;;;;;;;;;;;5094184;28;1317;-78
2022/11/03 15:21:12;;;;;;;;;;;;;;;;;;5091497;28;1981;-78
2022/11/03 15:23:41;;;;;;;;;;;;;;;;;;5064026;28;1178;-77
2022/11/03 15:26:06;;;;;;;;;;;;;;;;;;5069778;28;1197;-78
2022/11/03 15:28:32;;;;;;;;;;;;;;;;;;5081235;28;1201;-76
2022/11/03 15:30:57;;;;;;;;;;;;;;;;;;5094810;28;1200;-74
2022/11/03 15:33:22;;;;;;;;;;;;;;;;;;5076746;28;1210;-74
2022/11/03 15:35:48;;;;;;;;;;;;;;;;;;5093683;28;1142;-76
2022/11/03 15:38:13;;;;;;;;;;;;;;;;;;5094009;28;899;-77
2022/11/03 15:40:39;;;;;;;;;;;;;;;;;;5093880;28;1910;-76
2022/11/03 15:43:04;;;;;;;;;;;;;;;;;;5093812;28;1238;-78
2022/11/03 15:45:30;;;;;;;;;;;;;;;;;;5093758;28;900;-78
2022/11/03 15:47:55;;;;;;;;;;;;;;;;;;5076189;28;1190;-78
2022/11/03 15:50:21;;;;;;;;;;;;;;;;;;5094695;28;853;-78
2022/11/03 15:52:46;;;;;;;;;;;;;;;;;;5094926;28;916;-77
2022/11/03 15:55:11;;;;;;;;;;;;;;;;;;5095650;28;888;-78
2022/11/03 15:57:36;;;;;;;;;;;;;;;;;;5093945;28;916;-77
2022/11/03 16:00:05;;;;;;;;;;;;;;;;;;5088208;28;1956;-77
2022/11/03 16:02:30;;;;;;;;;;;;;;;;;;5086927;28;1141;-77
2022/11/03 16:04:56;;;;;;;;;;;;;;;;;;5080014;28;1281;-77
2022/11/03 16:07:21;;;;;;;;;;;;;;;;;;5089009;28;1357;-77
2022/11/03 16:09:48;;;;;;;;;;;;;;;;;;5096444;28;998;-77
2022/11/03 16:12:13;;;;;;;;;;;;;;;;;;5097792;28;833;-78
2022/11/03 16:14:38;;;;;;;;;;;;;;;;;;5076454;28;3804;-77
2022/11/03 16:17:05;;;;;;;;;;;;;;;;;;5099304;28;3524;-77
2022/11/03 16:19:30;;;;;;;;;;;;;;;;;;5105991;28;4425;-77
2022/11/03 16:21:55;;;;;;;;;;;;;;;;;;5092737;28;1201;-77
2022/11/03 16:24:20;;;;;;;;;;;;;;;;;;5112050;27;1223;-77
2022/11/03 16:26:46;;;;;;;;;;;;;;;;;;5071791;28;4369;-77
2022/11/03 16:29:11;;;;;;;;;;;;;;;;;;5071460;28;3710;-77
2022/11/03 16:31:36;;;;;;;;;;;;;;;;;;5091560;28;1439;-76
2022/11/03 16:34:03;;;;;;;;;;;;;;;;;;5072228;28;3375;-76
2022/11/03 16:36:28;;;;;;;;;;;;;;;;;;5071496;28;1360;-76
2022/11/03 16:38:54;;;;;;;;;;;;;;;;;;5071857;28;1905;-76
2022/11/03 16:41:19;;;;;;;;;;;;;;;;;;5054815;28;1115;-76
2022/11/03 16:43:45;;;;;;;;;;;;;;;;;;5072111;28;1329;-77
2022/11/03 16:46:11;;;;;;;;;;;;;;;;;;5055954;28;1293;-76
2022/11/03 16:48:36;;;;;;;;;;;;;;;;;;5071108;28;1277;-76
2022/11/03 16:51:02;;;;;;;;;;;;;;;;;;5071858;28;1170;-76
2022/11/03 16:53:27;;;;;;;;;;;;;;;;;;5054999;28;1291;-76
2022/11/03 16:55:52;;;;;;;;;;;;;;;;;;5088771;28;887;-76
2022/11/03 16:58:18;;;;;;;;;;;;;;;;;;5055002;28;1277;-76
2022/11/03 17:00:43;;;;;;;;;;;;;;;;;;5071459;28;1973;-75
2022/11/03 17:03:08;;;;;;;;;;;;;;;;;;5072622;28;1159;-75
2022/11/03 17:05:34;;;;;;;;;;;;;;;;;;5053899;28;1147;-75
2022/11/03 17:07:59;;;;;;;;;;;;;;;;;;5056216;28;852;-75
2022/11/03 17:10:27;;;;;;;;;;;;;;;;;;5057062;28;1153;-75
2022/11/03 17:12:53;;;;;;;;;;;;;;;;;;5075332;28;1292;-75
2022/11/03 17:15:18;;;;;;;;;;;;;;;;;;5075196;28;1273;-75
2022/11/03 17:17:43;;;;;;;;;;;;;;;;;;5089707;28;891;-76
2022/11/03 17:20:10;;;;;;;;;;;;;;;;;;5055285;28;1882;-76
2022/11/03 17:22:35;;;;;;;;;;;;;;;;;;5057210;28;1336;-76
2022/11/03 17:25:01;;;;;;;;;;;;;;;;;;5059312;28;1180;-76
2022/11/03 17:27:46;;;;;;;;;;;;;;;;;;5063391;28;1254;-76
2022/11/03 17:30:22;;;;;;;;;;;;;;;;;;5060703;28;1443;-77
2022/11/03 17:32:49;;;;;;;;;;;;;;;;;;5056538;28;1376;-77